Terminal Aerodrome Forecast
Issued by NWS

Home | Current Version | Previous Version | Text Only | Print | Product List | Glossary On
Versions: 1 2 3 4 5 6 7 8 9 10 11 12 13 14 15 16 17 18 19 20 21 22 23 24 25 26 27 28 29 30
000
FTUS45 KBOU 030538
TAFBJC
TAF
KBJC 030538Z 0306/0406 28006KT P6SM BKN120
     FM031000 VRB05KT P6SM SCT080 SCT110
     FM031700 34008KT P6SM SCT090 SCT120
     FM032000 01012KT P6SM FEW120 SCT220
     FM040100 26008KT P6SM SCT220
     FM040500 30006KT P6SM FEW220=

USA.gov is the U.S. government's official web portal to all federal, state and local government web resources and services.